Time;durP1;ratioP1;P1;durP2;ratioP2;P2;SDS_P1;SDS_P2;PMS_P1;PMS_P2;Temp;Humidity;BMP_temperature;BMP_pressure;BME280_temperature;BME280_humidity;BME280_pressure;Samples;Min_cycle;Max_cycle;Signal;HPM_P1;HPM_P2
2023/05/06 00:01:31;;;;;;;11.00;4.43;;;10.30;99.90;;;;;;5020878;28;20181;-77
2023/05/06 00:03:56;;;;;;;6.60;4.40;;;10.40;99.90;;;;;;5013662;28;20676;-77
2023/05/06 00:06:22;;;;;;;5.63;4.27;;;10.30;99.90;;;;;;5019183;28;20200;-77
2023/05/06 00:08:47;;;;;;;5.53;4.20;;;10.30;99.90;;;;;;5030550;28;20193;-77
2023/05/06 00:11:13;;;;;;;6.13;4.40;;;10.20;99.90;;;;;;5030127;28;20272;-77
2023/05/06 00:13:38;;;;;;;6.07;4.60;;;10.20;99.90;;;;;;5030248;28;20212;-78
2023/05/06 00:16:04;;;;;;;11.13;4.40;;;10.20;99.90;;;;;;5011868;28;20705;-77
2023/05/06 00:18:30;;;;;;;6.17;4.67;;;10.20;99.90;;;;;;5025282;28;20213;-78
2023/05/06 00:20:55;;;;;;;6.43;5.20;;;10.20;99.90;;;;;;5024997;28;20190;-77
2023/05/06 00:23:21;;;;;;;7.80;6.23;;;10.20;99.90;;;;;;5028959;28;20547;-77
2023/05/06 00:25:46;;;;;;;6.23;4.93;;;10.20;99.90;;;;;;5024789;28;20209;-77
2023/05/06 00:28:12;;;;;;;8.60;5.70;;;10.20;99.90;;;;;;5018170;28;20236;-77
2023/05/06 00:30:37;;;;;;;9.77;6.70;;;10.20;99.90;;;;;;5027655;28;20185;-77
2023/05/06 00:33:03;;;;;;;10.83;6.70;;;10.10;99.90;;;;;;5028615;28;20189;-78
2023/05/06 00:35:29;;;;;;;11.27;6.47;;;10.10;99.90;;;;;;5023922;28;20192;-77
2023/05/06 00:38:07;;;;;;;11.07;6.40;;;10.10;99.90;;;;;;5018082;28;20204;-77
2023/05/06 00:40:33;;;;;;;8.80;6.23;;;10.20;99.90;;;;;;5027366;28;20663;-78
2023/05/06 00:42:59;;;;;;;8.00;6.40;;;10.10;99.90;;;;;;5030306;28;20233;-77
2023/05/06 00:45:24;;;;;;;10.00;7.40;;;10.10;99.90;;;;;;5027084;28;20571;-77
2023/05/06 00:47:51;;;;;;;13.93;7.70;;;10.10;99.90;;;;;;5014012;28;20201;-77
2023/05/06 00:50:17;;;;;;;14.07;8.17;;;10.10;99.90;;;;;;5022547;28;20184;-78
2023/05/06 00:52:42;;;;;;;15.73;8.03;;;10.10;99.90;;;;;;5029811;28;20191;-77
2023/05/06 00:55:08;;;;;;;11.93;8.40;;;10.00;99.90;;;;;;5020689;28;20184;-77
2023/05/06 00:57:34;;;;;;;11.67;8.83;;;10.00;99.90;;;;;;5030240;28;20632;-77
2023/05/06 01:00:00;;;;;;;9.87;7.53;;;10.00;99.90;;;;;;5010578;28;20189;-78
2023/05/06 01:02:25;;;;;;;13.87;8.53;;;9.90;99.90;;;;;;5012556;28;20185;-77
2023/05/06 01:04:54;;;;;;;10.73;8.03;;;9.90;99.90;;;;;;5029057;28;20212;-77
2023/05/06 01:07:36;;;;;;;10.10;7.07;;;9.80;99.90;;;;;;5028827;28;20196;-78
2023/05/06 01:10:12;;;;;;;13.30;7.67;;;9.90;99.90;;;;;;5013225;28;20317;-77
2023/05/06 01:13:01;;;;;;;13.80;7.70;;;9.80;99.90;;;;;;5024351;28;20200;-77
2023/05/06 01:15:39;;;;;;;8.57;6.57;;;9.80;99.90;;;;;;5031413;28;20226;-77
2023/05/06 01:18:09;;;;;;;10.57;8.00;;;9.80;99.90;;;;;;5029462;28;20215;-77
2023/05/06 01:20:37;;;;;;;11.67;7.63;;;9.80;99.90;;;;;;5029000;28;20199;-77
2023/05/06 01:23:09;;;;;;;12.13;8.63;;;9.70;99.90;;;;;;5026940;28;20585;-77
2023/05/06 01:25:34;;;;;;;11.83;8.27;;;9.70;99.90;;;;;;5024623;28;20294;-81
2023/05/06 01:28:00;;;;;;;12.23;8.90;;;9.70;99.90;;;;;;5027599;28;20208;-77
2023/05/06 01:30:34;;;;;;;15.57;9.57;;;9.70;99.90;;;;;;5027998;28;20241;-77
2023/05/06 01:33:17;;;;;;;12.53;8.93;;;9.70;99.90;;;;;;5022946;28;20184;-77
2023/05/06 01:36:15;;;;;;;14.00;9.73;;;9.70;99.90;;;;;;5019930;28;20184;-77
2023/05/06 01:39:00;;;;;;;14.73;10.17;;;9.60;99.90;;;;;;5029501;28;20663;-77
2023/05/06 01:41:26;;;;;;;13.83;10.17;;;9.60;99.90;;;;;;5011817;28;20173;-77
2023/05/06 01:43:53;;;;;;;17.40;10.47;;;9.60;99.90;;;;;;5024274;28;20238;-77
2023/05/06 01:46:20;;;;;;;13.10;9.83;;;9.60;99.90;;;;;;5019528;28;20205;-77
2023/05/06 01:48:48;;;;;;;13.93;10.20;;;9.50;99.90;;;;;;5017013;28;20205;-77
2023/05/06 01:51:14;;;;;;;12.47;8.77;;;9.50;99.90;;;;;;5012096;28;20212;-77
2023/05/06 01:53:40;;;;;;;15.80;10.67;;;9.50;99.90;;;;;;5016173;28;20181;-77
2023/05/06 01:56:06;;;;;;;17.57;11.53;;;9.40;99.90;;;;;;5025480;28;20193;-77
2023/05/06 01:58:31;;;;;;;16.67;10.97;;;9.40;99.90;;;;;;5011541;28;20214;-78
2023/05/06 02:00:57;;;;;;;16.90;11.73;;;9.40;99.90;;;;;;5013478;28;20188;-77
2023/05/06 02:03:22;;;;;;;18.80;11.50;;;9.40;99.90;;;;;;5015972;28;20197;-77
2023/05/06 02:05:48;;;;;;;17.93;11.53;;;9.40;99.90;;;;;;5026074;28;20211;-77
2023/05/06 02:08:14;;;;;;;18.03;12.53;;;9.40;99.90;;;;;;5031152;28;20203;-78
2023/05/06 02:10:39;;;;;;;20.40;12.27;;;9.30;99.90;;;;;;5019211;28;20196;-78
2023/05/06 02:13:05;;;;;;;18.13;11.83;;;9.30;99.90;;;;;;5027686;28;20200;-77
2023/05/06 02:15:30;;;;;;;17.70;12.17;;;9.30;99.90;;;;;;5029717;28;20185;-77
2023/05/06 02:17:56;;;;;;;20.17;12.43;;;9.20;99.90;;;;;;5032249;28;20279;-77
2023/05/06 02:20:22;;;;;;;16.80;11.77;;;9.30;99.90;;;;;;5030483;28;20655;-77
2023/05/06 02:22:47;;;;;;;15.43;10.53;;;9.30;99.90;;;;;;5031351;28;20247;-77
2023/05/06 02:25:13;;;;;;;16.40;10.77;;;9.20;99.90;;;;;;5029179;28;20249;-77
2023/05/06 02:27:38;;;;;;;18.83;12.03;;;9.20;99.90;;;;;;5031569;28;20241;-77
2023/05/06 02:30:06;;;;;;;19.83;12.87;;;9.20;99.90;;;;;;5024247;28;20181;-77
2023/05/06 02:32:31;;;;;;;20.30;12.40;;;9.20;99.90;;;;;;5022442;28;20624;-77
2023/05/06 02:34:57;;;;;;;18.90;11.83;;;9.20;99.90;;;;;;5030261;28;20180;-77
2023/05/06 02:37:23;;;;;;;19.80;12.17;;;9.10;99.90;;;;;;5032137;28;20207;-77
2023/05/06 02:39:48;;;;;;;19.23;10.70;;;9.10;99.90;;;;;;5030873;28;20181;-77
2023/05/06 02:42:14;;;;;;;18.53;11.43;;;9.10;99.90;;;;;;5030380;28;20212;-77
2023/05/06 02:44:40;;;;;;;18.53;10.10;;;9.10;99.90;;;;;;5018999;28;20259;-77
2023/05/06 02:47:06;;;;;;;17.33;11.53;;;9.10;99.90;;;;;;5027339;28;20671;-77
2023/05/06 02:49:31;;;;;;;19.40;12.50;;;9.10;99.90;;;;;;5029328;28;20184;-77
2023/05/06 02:51:57;;;;;;;17.17;11.23;;;8.90;99.90;;;;;;5030946;28;20236;-78
2023/05/06 02:54:23;;;;;;;21.40;12.67;;;9.00;99.90;;;;;;5029710;28;20266;-77
2023/05/06 02:56:48;;;;;;;20.70;12.10;;;9.00;99.90;;;;;;5031111;28;20199;-77
2023/05/06 02:59:14;;;;;;;19.30;11.87;;;9.00;99.90;;;;;;5028831;28;20227;-77
2023/05/06 03:01:39;;;;;;;18.63;12.40;;;9.00;99.90;;;;;;5020659;28;20810;-77
2023/05/06 03:04:05;;;;;;;27.23;12.90;;;9.00;99.90;;;;;;5031565;28;20245;-78
2023/05/06 03:06:31;;;;;;;20.80;12.80;;;9.00;99.90;;;;;;5029931;28;20196;-78
2023/05/06 03:08:56;;;;;;;21.13;12.90;;;8.90;99.90;;;;;;5030164;28;20671;-77
2023/05/06 03:11:22;;;;;;;19.80;12.77;;;8.90;99.90;;;;;;5027730;28;20180;-78
2023/05/06 03:13:48;;;;;;;19.57;12.50;;;9.00;99.90;;;;;;5010257;28;20193;-77
2023/05/06 03:16:13;;;;;;;18.93;11.80;;;8.90;99.90;;;;;;5010279;28;20185;-77
2023/05/06 03:18:39;;;;;;;18.83;12.07;;;8.90;99.90;;;;;;5029129;28;20691;-77
2023/05/06 03:21:05;;;;;;;20.83;12.33;;;8.90;99.90;;;;;;5029185;28;20329;-77
2023/05/06 03:23:30;;;;;;;23.07;13.67;;;8.90;99.90;;;;;;5028919;28;20202;-77
2023/05/06 03:25:56;;;;;;;26.37;14.60;;;8.90;99.90;;;;;;5029922;28;20200;-77
2023/05/06 03:28:22;;;;;;;22.67;13.27;;;8.90;99.90;;;;;;5019453;28;20753;-77
2023/05/06 03:30:47;;;;;;;20.83;13.43;;;8.80;99.90;;;;;;5030410;28;20667;-77
2023/05/06 03:33:13;;;;;;;19.83;13.03;;;8.80;99.90;;;;;;5029496;28;20189;-77
2023/05/06 03:35:38;;;;;;;19.37;12.90;;;8.80;99.90;;;;;;5028615;28;20191;-77
2023/05/06 03:38:05;;;;;;;20.17;13.57;;;8.70;99.90;;;;;;5030243;28;20322;-77
2023/05/06 03:40:31;;;;;;;21.80;13.67;;;8.70;99.90;;;;;;5027534;28;20213;-77
2023/05/06 03:42:56;;;;;;;18.87;12.83;;;8.70;99.90;;;;;;5029450;28;20187;-77
2023/05/06 03:45:22;;;;;;;22.40;12.57;;;8.70;99.90;;;;;;5028188;28;20710;-78
2023/05/06 03:47:47;;;;;;;25.00;12.07;;;8.70;99.90;;;;;;5012565;28;20207;-77
2023/05/06 03:50:13;;;;;;;19.03;12.30;;;8.60;99.90;;;;;;5030088;28;20184;-77
2023/05/06 03:52:39;;;;;;;20.23;12.70;;;8.60;99.90;;;;;;5029378;28;20184;-78
2023/05/06 03:55:05;;;;;;;22.47;14.13;;;8.60;99.90;;;;;;5029117;28;20190;-78
2023/05/06 03:57:30;;;;;;;21.97;13.07;;;8.60;99.90;;;;;;5012305;28;20668;-78
2023/05/06 03:59:56;;;;;;;24.93;14.47;;;8.60;99.90;;;;;;5028575;28;20245;-77
2023/05/06 04:02:22;;;;;;;20.00;12.07;;;8.60;99.90;;;;;;5017511;28;20192;-77
2023/05/06 04:04:47;;;;;;;20.37;12.17;;;8.50;99.90;;;;;;5022597;28;20575;-77
2023/05/06 04:07:13;;;;;;;21.10;12.47;;;8.50;99.90;;;;;;5014891;28;20204;-77
2023/05/06 04:09:39;;;;;;;19.80;11.57;;;8.50;99.90;;;;;;5013465;28;20180;-77
2023/05/06 04:12:04;;;;;;;20.20;11.43;;;8.50;99.90;;;;;;5028441;28;20184;-78
2023/05/06 04:14:30;;;;;;;20.63;12.67;;;8.50;99.90;;;;;;5030412;28;20176;-77
2023/05/06 04:16:56;;;;;;;21.10;13.80;;;8.50;99.90;;;;;;5029143;28;20196;-77
2023/05/06 04:19:21;;;;;;;22.23;13.13;;;8.50;99.90;;;;;;5027733;28;20253;-77
2023/05/06 04:21:47;;;;;;;21.87;12.93;;;8.50;99.90;;;;;;5027965;28;20224;-78
2023/05/06 04:24:14;;;;;;;22.70;14.10;;;8.60;99.90;;;;;;5028644;28;20180;-77
2023/05/06 04:26:40;;;;;;;22.43;13.00;;;8.60;99.90;;;;;;5027355;28;20204;-77
2023/05/06 04:29:06;;;;;;;24.20;13.93;;;8.50;99.90;;;;;;5021434;28;20197;-78
2023/05/06 04:31:33;;;;;;;21.37;13.17;;;8.50;99.90;;;;;;5029803;28;20221;-78
2023/05/06 04:33:59;;;;;;;26.20;14.13;;;8.60;99.90;;;;;;5044914;28;20176;-77
2023/05/06 04:36:25;;;;;;;23.63;14.57;;;8.50;99.90;;;;;;5048711;28;20211;-78
2023/05/06 04:38:52;;;;;;;27.83;14.07;;;8.50;99.90;;;;;;5049921;28;20701;-77
2023/05/06 04:41:17;;;;;;;22.37;13.30;;;8.50;99.90;;;;;;5046796;28;20603;-78
2023/05/06 04:43:43;;;;;;;21.63;12.47;;;8.60;99.90;;;;;;5029366;28;20193;-77
2023/05/06 04:46:09;;;;;;;21.60;12.50;;;8.60;99.90;;;;;;5028369;28;20215;-78
2023/05/06 04:48:36;;;;;;;22.47;12.87;;;8.60;99.90;;;;;;5028644;28;20204;-78
2023/05/06 04:51:05;;;;;;;21.20;13.37;;;8.60;99.90;;;;;;5029545;28;20352;-78
2023/05/06 04:53:31;;;;;;;24.47;13.57;;;8.60;99.90;;;;;;5029330;28;20184;-78
2023/05/06 04:55:56;;;;;;;26.53;13.10;;;8.70;99.90;;;;;;5030198;28;20310;-78
2023/05/06 04:58:22;;;;;;;25.37;14.37;;;8.70;99.90;;;;;;5029776;28;20278;-78
2023/05/06 05:00:47;;;;;;;27.07;13.67;;;8.70;99.90;;;;;;5028757;28;20198;-78
2023/05/06 05:03:16;;;;;;;24.27;14.03;;;8.80;99.90;;;;;;5030701;28;20191;-79
2023/05/06 05:05:42;;;;;;;21.57;13.73;;;8.80;99.90;;;;;;5025145;28;20217;-78
2023/05/06 05:08:08;;;;;;;29.30;12.73;;;8.90;99.90;;;;;;5017997;28;20209;-78
2023/05/06 05:10:34;;;;;;;21.47;13.27;;;8.90;99.90;;;;;;5028308;28;20211;-77
2023/05/06 05:13:00;;;;;;;22.87;13.90;;;8.90;99.90;;;;;;5027866;28;20323;-78
2023/05/06 05:15:25;;;;;;;28.07;14.57;;;8.90;99.90;;;;;;5027733;28;20185;-78
2023/05/06 05:17:51;;;;;;;23.73;13.53;;;9.00;99.90;;;;;;5030072;28;20585;-78
2023/05/06 05:20:16;;;;;;;20.80;13.33;;;9.00;99.90;;;;;;5024551;28;20184;-77
2023/05/06 05:22:42;;;;;;;27.00;14.27;;;9.00;99.90;;;;;;5028297;28;20561;-77
2023/05/06 05:25:07;;;;;;;22.53;14.67;;;9.10;99.90;;;;;;5019005;28;20212;-77
2023/05/06 05:27:33;;;;;;;23.53;14.13;;;9.10;99.90;;;;;;5028896;28;20280;-78
2023/05/06 05:29:59;;;;;;;24.00;13.73;;;9.10;99.90;;;;;;5029969;28;20209;-77
2023/05/06 05:32:25;;;;;;;25.20;15.30;;;9.20;99.90;;;;;;5031979;28;20177;-76
2023/05/06 05:34:51;;;;;;;29.83;16.20;;;9.30;99.90;;;;;;5031622;28;20274;-77
2023/05/06 05:37:17;;;;;;;32.13;17.10;;;9.30;99.90;;;;;;5031723;28;20204;-77
2023/05/06 05:39:42;;;;;;;33.93;18.53;;;9.30;99.90;;;;;;5031524;28;20169;-77
2023/05/06 05:42:08;;;;;;;34.30;18.03;;;9.40;99.90;;;;;;5032362;28;20176;-78
2023/05/06 05:44:33;;;;;;;32.50;17.83;;;9.50;99.90;;;;;;5032357;28;20164;-78
2023/05/06 05:46:59;;;;;;;34.87;18.47;;;9.60;99.90;;;;;;5034526;28;20608;-78
2023/05/06 05:49:24;;;;;;;32.40;18.63;;;9.70;99.90;;;;;;5036079;28;20255;-78
2023/05/06 05:51:50;;;;;;;37.87;21.33;;;9.70;99.90;;;;;;5035929;28;20169;-79
2023/05/06 05:54:15;;;;;;;42.73;23.00;;;9.80;99.90;;;;;;5038312;28;20695;-79
2023/05/06 05:56:41;;;;;;;44.50;22.70;;;9.90;99.90;;;;;;5037773;28;20173;-79
2023/05/06 05:59:07;;;;;;;43.97;23.27;;;10.00;99.90;;;;;;5040751;28;20227;-79
2023/05/06 06:01:32;;;;;;;49.00;26.83;;;10.20;99.90;;;;;;5039518;28;20172;-79
2023/05/06 06:03:58;;;;;;;48.47;24.80;;;10.20;99.90;;;;;;5036570;28;20176;-77
2023/05/06 06:06:25;;;;;;;43.40;23.33;;;10.30;99.90;;;;;;5033577;28;20204;-78
2023/05/06 06:08:50;;;;;;;47.70;26.20;;;10.50;99.90;;;;;;5033768;28;20287;-77
2023/05/06 06:11:16;;;;;;;53.70;27.03;;;10.60;99.90;;;;;;5033182;28;20610;-78
2023/05/06 06:13:42;;;;;;;57.20;28.17;;;10.70;99.90;;;;;;5033095;28;20263;-78
2023/05/06 06:16:07;;;;;;;54.57;28.03;;;10.80;99.90;;;;;;5034399;28;20251;-78
2023/05/06 06:18:33;;;;;;;55.27;26.90;;;10.90;99.90;;;;;;5035698;28;20605;-78
2023/05/06 06:20:58;;;;;;;58.00;28.07;;;11.00;99.90;;;;;;5036281;28;20180;-78
2023/05/06 06:23:25;;;;;;;63.87;29.53;;;11.30;99.90;;;;;;5037016;28;20176;-77
2023/05/06 06:25:50;;;;;;;54.03;26.83;;;11.30;99.90;;;;;;5032280;28;20679;-78
2023/05/06 06:28:16;;;;;;;57.47;27.00;;;11.40;99.90;;;;;;5032401;28;20192;-78
2023/05/06 06:30:41;;;;;;;54.77;26.33;;;11.40;99.90;;;;;;5033756;28;20172;-78
2023/05/06 06:33:07;;;;;;;62.37;26.83;;;11.40;99.90;;;;;;5032353;28;20703;-77
2023/05/06 06:35:32;;;;;;;53.73;28.03;;;11.50;99.90;;;;;;5033271;28;20320;-77
2023/05/06 06:37:58;;;;;;;54.87;27.37;;;11.60;99.90;;;;;;5033542;28;20200;-78
2023/05/06 06:40:24;;;;;;;61.53;27.90;;;11.70;99.90;;;;;;5035253;28;20173;-77
2023/05/06 06:42:50;;;;;;;55.50;26.33;;;11.70;99.90;;;;;;5035304;28;20176;-78
2023/05/06 06:45:15;;;;;;;56.83;26.03;;;11.80;99.90;;;;;;5034269;28;20201;-78
2023/05/06 06:47:41;;;;;;;56.07;27.07;;;11.90;99.90;;;;;;5033559;28;20184;-77
2023/05/06 06:50:07;;;;;;;54.47;27.17;;;12.00;99.90;;;;;;5033564;28;20191;-78
2023/05/06 06:52:36;;;;;;;48.47;24.13;;;12.10;99.90;;;;;;5036234;28;20176;-78
2023/05/06 06:55:02;;;;;;;52.90;25.30;;;12.20;99.90;;;;;;5034531;28;20225;-79
2023/05/06 06:57:27;;;;;;;47.07;24.67;;;12.20;99.90;;;;;;5035084;28;20691;-77
2023/05/06 06:59:54;;;;;;;54.37;24.53;;;12.30;99.90;;;;;;5036650;28;20199;-77
2023/05/06 07:02:20;;;;;;;49.30;24.53;;;12.30;99.90;;;;;;5033251;28;20180;-77
2023/05/06 07:04:46;;;;;;;45.50;24.20;;;12.40;99.90;;;;;;5034609;28;20593;-77
2023/05/06 07:07:11;;;;;;;53.70;24.47;;;12.40;99.90;;;;;;5033934;28;20177;-78
2023/05/06 07:09:38;;;;;;;47.43;23.70;;;12.50;99.90;;;;;;5033525;28;20213;-77
2023/05/06 07:12:05;;;;;;;47.33;22.47;;;12.60;99.90;;;;;;5034775;28;20187;-78
2023/05/06 07:14:31;;;;;;;40.13;21.77;;;12.70;99.90;;;;;;5034052;28;20660;-78
2023/05/06 07:16:57;;;;;;;37.93;20.83;;;12.70;99.90;;;;;;5035162;28;20211;-79
2023/05/06 07:19:22;;;;;;;33.67;19.40;;;12.80;99.90;;;;;;5034933;28;20177;-78
2023/05/06 07:21:48;;;;;;;33.87;19.77;;;12.90;99.90;;;;;;5036126;28;20176;-79
2023/05/06 07:24:13;;;;;;;34.97;18.37;;;12.90;99.90;;;;;;5037639;28;20176;-78
2023/05/06 07:26:39;;;;;;;30.70;17.83;;;12.90;99.90;;;;;;5036497;28;20197;-78
2023/05/06 07:29:05;;;;;;;27.07;17.40;;;13.00;99.90;;;;;;5037425;28;20192;-78
2023/05/06 07:31:33;;;;;;;28.90;17.47;;;13.00;99.90;;;;;;5037181;28;20195;-79
2023/05/06 07:33:59;;;;;;;27.20;17.13;;;13.10;99.90;;;;;;5040231;28;20202;-79
2023/05/06 07:36:25;;;;;;;27.03;17.30;;;13.10;99.90;;;;;;5039932;28;20181;-79
2023/05/06 07:38:52;;;;;;;24.43;15.77;;;13.20;99.90;;;;;;5039029;28;20257;-79
2023/05/06 07:41:17;;;;;;;24.53;15.37;;;13.30;99.90;;;;;;5039817;28;20180;-79
2023/05/06 07:43:43;;;;;;;21.97;15.17;;;13.30;99.90;;;;;;5037698;28;20183;-79
2023/05/06 07:46:09;;;;;;;19.83;12.90;;;13.40;99.90;;;;;;5037704;28;20551;-79
2023/05/06 07:48:34;;;;;;;18.57;13.20;;;13.40;99.90;;;;;;5038183;28;20192;-79
2023/05/06 07:51:00;;;;;;;18.17;12.87;;;13.50;99.90;;;;;;5039742;28;20180;-79
2023/05/06 07:53:26;;;;;;;16.27;11.23;;;13.50;99.90;;;;;;5038900;28;20168;-78
2023/05/06 07:55:54;;;;;;;17.47;11.07;;;13.60;99.90;;;;;;5039942;28;20172;-79
2023/05/06 07:58:20;;;;;;;13.23;11.30;;;13.60;99.90;;;;;;5038510;28;20200;-79
2023/05/06 08:00:45;;;;;;;14.43;10.73;;;13.70;99.90;;;;;;5037571;28;20247;-79
2023/05/06 08:03:11;;;;;;;16.13;10.60;;;13.80;99.90;;;;;;5037797;28;20241;-79
2023/05/06 08:05:37;;;;;;;13.33;9.00;;;13.90;99.90;;;;;;5040031;28;20669;-79
2023/05/06 08:08:02;;;;;;;15.27;10.40;;;14.00;99.90;;;;;;5037495;28;20196;-79
2023/05/06 08:10:28;;;;;;;13.53;10.07;;;14.00;99.90;;;;;;5039295;28;20224;-79
2023/05/06 08:12:53;;;;;;;12.40;9.83;;;14.10;99.90;;;;;;5039191;28;20236;-79
2023/05/06 08:15:19;;;;;;;14.63;10.90;;;14.10;99.90;;;;;;5037538;28;20168;-78
2023/05/06 08:17:44;;;;;;;13.03;10.17;;;14.30;99.90;;;;;;5039111;28;20189;-79
2023/05/06 08:20:10;;;;;;;11.27;9.00;;;14.40;99.90;;;;;;5038022;28;20176;-79
2023/05/06 08:22:36;;;;;;;11.57;9.33;;;14.50;99.90;;;;;;5038006;28;20239;-79
2023/05/06 08:25:02;;;;;;;13.40;9.70;;;14.60;99.90;;;;;;5039651;28;20176;-79
2023/05/06 08:27:27;;;;;;;13.17;10.20;;;14.70;99.90;;;;;;5037956;28;20620;-79
2023/05/06 08:29:53;;;;;;;13.97;10.40;;;14.80;99.90;;;;;;5039914;28;20172;-79
2023/05/06 08:32:18;;;;;;;12.20;10.30;;;14.90;99.90;;;;;;5039947;28;20233;-80
2023/05/06 08:34:44;;;;;;;12.80;10.23;;;14.90;99.90;;;;;;5039033;28;20168;-79
2023/05/06 08:37:10;;;;;;;13.27;10.40;;;15.10;99.90;;;;;;5039965;28;20536;-79
2023/05/06 08:39:35;;;;;;;11.87;9.20;;;15.10;99.90;;;;;;5038199;28;20544;-80
2023/05/06 08:42:02;;;;;;;13.17;8.70;;;15.10;99.90;;;;;;5039160;28;20523;-79
2023/05/06 08:44:28;;;;;;;13.30;8.20;;;15.20;99.90;;;;;;5037590;28;20219;-79
2023/05/06 08:46:54;;;;;;;10.67;7.70;;;15.40;99.90;;;;;;5038416;28;20199;-79
2023/05/06 08:49:20;;;;;;;10.40;6.77;;;15.40;99.90;;;;;;5037493;28;20201;-79
2023/05/06 08:51:49;;;;;;;7.97;6.67;;;15.50;99.90;;;;;;5039699;28;20241;-79
2023/05/06 08:54:17;;;;;;;8.73;7.07;;;15.50;99.90;;;;;;5038748;28;20172;-79
2023/05/06 08:56:47;;;;;;;10.50;7.83;;;15.50;99.90;;;;;;5037742;28;20200;-79
2023/05/06 08:59:12;;;;;;;8.73;7.43;;;15.70;99.90;;;;;;5040957;28;20208;-78
2023/05/06 09:01:39;;;;;;;7.50;5.90;;;15.80;99.90;;;;;;5040500;28;20620;-79
2023/05/06 09:04:06;;;;;;;9.03;6.03;;;15.80;99.90;;;;;;5041968;28;20169;-79
2023/05/06 09:06:33;;;;;;;10.23;6.03;;;15.90;99.90;;;;;;5040792;28;20207;-79
2023/05/06 09:08:58;;;;;;;8.03;5.87;;;16.00;99.90;;;;;;5040788;28;20188;-79
2023/05/06 09:11:29;;;;;;;8.13;6.37;;;16.00;99.90;;;;;;5039772;28;20184;-79
2023/05/06 09:14:12;;;;;;;7.97;6.13;;;16.10;99.90;;;;;;5039491;28;20244;-79
2023/05/06 09:16:40;;;;;;;7.43;5.67;;;16.10;99.90;;;;;;5040637;28;20281;-79
2023/05/06 09:19:06;;;;;;;6.10;4.80;;;16.20;99.90;;;;;;5039899;28;20222;-79
2023/05/06 09:21:50;;;;;;;6.30;4.87;;;16.30;99.90;;;;;;5039860;28;20180;-79
2023/05/06 09:24:16;;;;;;;5.90;5.20;;;16.30;1.00;;;;;;5041001;28;20172;-79
2023/05/06 09:26:44;;;;;;;5.43;4.27;;;16.30;1.00;;;;;;5041290;28;20196;-79
2023/05/06 09:29:10;;;;;;;3.43;2.67;;;16.50;1.00;;;;;;5039814;28;20188;-79
2023/05/06 09:31:43;;;;;;;5.33;3.60;;;16.50;1.00;;;;;;5040456;28;20190;-79
2023/05/06 09:34:10;;;;;;;6.73;5.23;;;16.60;1.00;;;;;;5039426;28;20187;-78
2023/05/06 09:36:36;;;;;;;4.63;4.13;;;16.70;1.00;;;;;;5039607;28;20604;-79
2023/05/06 09:39:02;;;;;;;4.53;3.60;;;16.70;1.00;;;;;;5039536;28;20268;-78
2023/05/06 09:41:28;;;;;;;5.67;3.43;;;16.80;1.00;;;;;;5039597;28;20252;-78
2023/05/06 09:43:54;;;;;;;4.60;3.57;;;16.80;1.00;;;;;;5039948;28;20180;-79
2023/05/06 09:46:21;;;;;;;5.37;3.97;;;16.90;1.00;;;;;;5039750;28;20200;-79
2023/05/06 09:48:50;;;;;;;6.00;3.60;;;17.00;1.00;;;;;;5038485;28;20242;-79
2023/05/06 09:51:16;;;;;;;3.47;2.77;;;17.00;99.90;;;;;;5040768;28;20176;-79
2023/05/06 09:53:43;;;;;;;4.03;3.07;;;17.10;1.00;;;;;;5039887;28;20177;-78
2023/05/06 09:56:10;;;;;;;3.40;2.43;;;17.10;99.90;;;;;;5041064;28;20173;-79
2023/05/06 09:58:37;;;;;;;4.80;2.47;;;17.20;99.90;;;;;;5040509;28;20196;-79
2023/05/06 10:01:06;;;;;;;2.93;2.47;;;17.20;99.90;;;;;;5041146;28;20177;-78
2023/05/06 10:03:33;;;;;;;6.00;3.17;;;17.30;99.90;;;;;;5038048;28;20176;-78
2023/05/06 10:06:03;;;;;;;4.10;2.70;;;17.40;49.90;;;;;;5039276;28;20198;-79
2023/05/06 10:08:32;;;;;;;3.27;2.00;;;17.40;1.00;;;;;;5038197;28;20196;-79
2023/05/06 10:10:59;;;;;;;3.43;1.97;;;17.40;1.00;;;;;;5039264;28;20179;-79
2023/05/06 10:13:26;;;;;;;2.20;1.83;;;17.50;99.90;;;;;;5040343;28;20263;-79
2023/05/06 10:15:52;;;;;;;3.27;2.27;;;17.50;1.00;;;;;;5038091;28;20236;-78
2023/05/06 10:18:20;;;;;;;5.00;2.87;;;17.60;1.00;;;;;;5032940;28;20224;-77
2023/05/06 10:20:48;;;;;;;3.00;2.10;;;17.60;1.00;;;;;;5032528;28;20176;-78
2023/05/06 10:23:24;;;;;;;4.77;2.00;;;17.70;1.00;;;;;;5036517;28;20188;-78
2023/05/06 10:25:54;;;;;;;6.03;1.93;;;17.80;99.90;;;;;;5034176;28;20211;-78
2023/05/06 10:28:21;;;;;;;2.77;1.93;;;18.00;1.00;;;;;;5036088;28;20199;-76
2023/05/06 10:30:47;;;;;;;6.23;1.70;;;18.00;56.30;;;;;;5034814;28;20583;-78
2023/05/06 10:33:17;;;;;;;5.07;1.73;;;18.10;1.00;;;;;;5040390;28;20177;-79
2023/05/06 10:35:54;;;;;;;3.47;1.87;;;18.10;99.90;;;;;;5039856;28;20172;-79
2023/05/06 10:38:28;;;;;;;3.03;1.90;;;18.10;99.90;;;;;;5037036;28;20208;-79
2023/05/06 10:40:54;;;;;;;3.03;1.87;;;18.20;99.90;;;;;;5038914;28;20167;-80
2023/05/06 10:43:27;;;;;;;3.80;1.97;;;18.30;1.00;;;;;;5039015;28;20184;-80
2023/05/06 10:46:07;;;;;;;2.60;1.40;;;18.40;1.00;;;;;;5034974;28;20216;-78
2023/05/06 10:48:34;;;;;;;3.20;1.57;;;18.50;1.00;;;;;;5031898;28;20282;-77
2023/05/06 10:51:15;;;;;;;3.23;1.90;;;18.60;99.90;;;;;;5035057;28;20175;-78
2023/05/06 10:54:05;;;;;;;3.53;1.60;;;18.60;1.00;;;;;;5041664;28;20222;-78
2023/05/06 10:56:36;;;;;;;2.57;1.73;;;18.60;99.90;;;;;;5047257;28;20192;-79
2023/05/06 10:59:08;;;;;;;3.83;2.10;;;18.70;1.00;;;;;;5039124;28;20257;-79
2023/05/06 11:01:41;;;;;;;3.47;2.37;;;18.90;62.10;;;;;;5035989;28;20628;-79
2023/05/06 11:04:12;;;;;;;3.53;1.80;;;18.90;99.90;;;;;;5038023;28;20179;-79
2023/05/06 11:06:53;;;;;;;4.57;2.00;;;19.00;99.90;;;;;;5041617;28;20231;-79
2023/05/06 11:09:23;;;;;;;3.73;1.97;;;18.90;99.90;;;;;;5038927;28;20561;-80
2023/05/06 11:11:50;;;;;;;3.60;1.87;;;18.90;99.90;;;;;;5038594;28;20188;-81
2023/05/06 11:14:30;;;;;;;3.90;2.23;;;18.90;1.00;;;;;;5039711;28;20599;-79
2023/05/06 11:17:00;;;;;;;4.13;2.07;;;18.90;1.00;;;;;;5040525;28;20576;-79
2023/05/06 11:19:28;;;;;;;4.43;2.57;;;18.90;99.90;;;;;;5038184;28;20632;-78
2023/05/06 11:21:56;;;;;;;2.90;1.67;;;19.10;1.00;;;;;;5038603;28;20209;-80
2023/05/06 11:24:42;;;;;;;2.83;1.63;;;19.10;1.00;;;;;;5038767;28;20180;-79
2023/05/06 11:27:09;;;;;;;3.10;1.67;;;19.30;1.00;;;;;;5040386;28;20283;-80
2023/05/06 11:29:34;;;;;;;2.73;1.90;;;19.40;99.90;;;;;;5037765;28;20281;-80
2023/05/06 11:32:00;;;;;;;2.53;1.60;;;19.50;1.00;;;;;;5041609;28;20620;-81
2023/05/06 11:34:27;;;;;;;6.27;1.30;;;19.70;1.00;;;;;;5041917;28;20180;-82
2023/05/06 11:36:57;;;;;;;1.30;0.90;;;19.90;99.90;;;;;;5040992;28;20176;-81
2023/05/06 11:39:29;;;;;;;6.90;1.20;;;20.00;1.00;;;;;;5041856;28;20184;-81
2023/05/06 11:41:59;;;;;;;2.63;0.90;;;20.20;1.00;;;;;;5036407;28;20699;-83
2023/05/06 11:44:33;;;;;;;2.50;1.70;;;20.40;99.90;;;;;;5022136;28;20594;-83
2023/05/06 11:47:04;;;;;;;3.20;1.87;;;20.40;1.00;;;;;;5023540;28;20215;-82
2023/05/06 11:49:39;;;;;;;3.33;1.83;;;20.30;99.90;;;;;;5021727;28;20180;-80
2023/05/06 11:52:05;;;;;;;2.90;1.67;;;20.30;1.00;;;;;;5021859;28;20168;-80
2023/05/06 11:54:34;;;;;;;2.37;1.60;;;20.30;1.00;;;;;;5023081;28;20181;-79
2023/05/06 11:57:00;;;;;;;4.03;1.50;;;20.40;1.00;;;;;;5022684;28;20179;-80
2023/05/06 11:59:36;;;;;;;2.57;1.43;;;20.40;1.00;;;;;;5021347;28;20200;-80
2023/05/06 12:02:08;;;;;;;2.07;1.20;;;20.40;1.00;;;;;;5023037;28;20240;-79
2023/05/06 12:04:40;;;;;;;2.67;1.50;;;20.30;99.90;;;;;;5020322;28;20184;-80
2023/05/06 12:07:07;;;;;;;4.10;1.10;;;20.40;99.90;;;;;;5020751;28;20709;-79
2023/05/06 12:09:33;;;;;;;5.20;1.67;;;20.50;1.00;;;;;;5019669;28;20284;-79
2023/05/06 12:12:01;;;;;;;1.93;1.10;;;20.40;99.90;;;;;;5021827;28;20632;-80
2023/05/06 12:14:27;;;;;;;3.23;1.20;;;20.40;99.90;;;;;;5022490;28;20177;-80
2023/05/06 12:16:53;;;;;;;1.93;1.13;;;20.50;99.90;;;;;;5020217;28;20189;-80
2023/05/06 12:19:20;;;;;;;3.40;1.23;;;20.90;1.00;;;;;;5019863;28;20200;-77
2023/05/06 12:21:46;;;;;;;2.97;1.00;;;20.40;38.50;;;;;;5017913;28;20249;-80
2023/05/06 12:24:11;;;;;;;3.07;1.20;;;20.60;1.00;;;;;;5022749;28;20276;-80
2023/05/06 12:26:45;;;;;;;3.03;1.30;;;20.80;1.00;;;;;;5019520;28;20254;-79
2023/05/06 12:29:15;;;;;;;2.83;1.30;;;20.70;99.90;;;;;;5019629;28;20254;-80
2023/05/06 12:31:42;;;;;;;3.67;1.60;;;20.80;99.90;;;;;;5019786;28;20183;-80
2023/05/06 12:34:07;;;;;;;3.67;1.60;;;20.90;86.30;;;;;;5019382;28;20188;-82
2023/05/06 12:36:42;;;;;;;0.93;0.80;;;21.00;99.90;;;;;;5017385;28;20185;-80
2023/05/06 12:39:08;;;;;;;2.77;1.20;;;21.00;1.00;;;;;;5019871;28;20197;-81
2023/05/06 12:41:37;;;;;;;4.50;1.27;;;21.10;1.00;;;;;;5021681;28;20176;-81